sensor_id;sensor_type;location;lat;lon;timestamp;temperature;humidity
33837;DHT22;20140;49.356;8.812;2022-11-15T00:00:49;6.80;99.90
33837;DHT22;20140;49.356;8.812;2022-11-15T00:03:16;6.80;99.90
33837;DHT22;20140;49.356;8.812;2022-11-15T00:05:42;6.80;99.90
33837;DHT22;20140;49.356;8.812;2022-11-15T00:08:08;6.90;99.90
33837;DHT22;20140;49.356;8.812;2022-11-15T00:10:34;6.80;99.90
33837;DHT22;20140;49.356;8.812;2022-11-15T00:12:59;6.70;99.90
33837;DHT22;20140;49.356;8.812;2022-11-15T00:15:25;6.60;99.90
33837;DHT22;20140;49.356;8.812;2022-11-15T00:17:50;6.50;99.90
33837;DHT22;20140;49.356;8.812;2022-11-15T00:20:18;6.40;99.90
33837;DHT22;20140;49.356;8.812;2022-11-15T00:22:43;6.50;99.90
33837;DHT22;20140;49.356;8.812;2022-11-15T00:25:09;6.50;99.90
33837;DHT22;20140;49.356;8.812;2022-11-15T00:27:34;6.40;99.90
33837;DHT22;20140;49.356;8.812;2022-11-15T00:30:00;6.40;99.90
33837;DHT22;20140;49.356;8.812;2022-11-15T00:32:26;6.40;99.90
33837;DHT22;20140;49.356;8.812;2022-11-15T00:34:51;6.40;99.90
33837;DHT22;20140;49.356;8.812;2022-11-15T00:37:17;6.50;99.90
33837;DHT22;20140;49.356;8.812;2022-11-15T00:39:42;6.60;99.90
33837;DHT22;20140;49.356;8.812;2022-11-15T00:42:08;6.50;99.90
33837;DHT22;20140;49.356;8.812;2022-11-15T00:44:33;6.50;99.90
33837;DHT22;20140;49.356;8.812;2022-11-15T00:46:59;6.50;99.90
33837;DHT22;20140;49.356;8.812;2022-11-15T00:49:24;6.60;99.90
33837;DHT22;20140;49.356;8.812;2022-11-15T00:51:50;6.60;99.90
33837;DHT22;20140;49.356;8.812;2022-11-15T00:54:15;6.60;99.90
33837;DHT22;20140;49.356;8.812;2022-11-15T00:56:41;6.60;99.90
33837;DHT22;20140;49.356;8.812;2022-11-15T00:59:06;6.60;99.90
33837;DHT22;20140;49.356;8.812;2022-11-15T01:01:32;6.60;99.90
33837;DHT22;20140;49.356;8.812;2022-11-15T01:03:57;6.70;99.90
33837;DHT22;20140;49.356;8.812;2022-11-15T01:06:23;6.60;99.90
33837;DHT22;20140;49.356;8.812;2022-11-15T01:08:48;6.40;99.90
33837;DHT22;20140;49.356;8.812;2022-11-15T01:11:14;6.30;99.90
33837;DHT22;20140;49.356;8.812;2022-11-15T01:13:40;6.40;99.90
33837;DHT22;20140;49.356;8.812;2022-11-15T01:16:11;6.40;99.90
33837;DHT22;20140;49.356;8.812;2022-11-15T01:18:37;6.40;99.90
33837;DHT22;20140;49.356;8.812;2022-11-15T01:21:08;6.30;99.90
33837;DHT22;20140;49.356;8.812;2022-11-15T01:23:34;6.30;99.90
33837;DHT22;20140;49.356;8.812;2022-11-15T01:26:01;6.30;99.90
33837;DHT22;20140;49.356;8.812;2022-11-15T01:28:31;6.30;99.90
33837;DHT22;20140;49.356;8.812;2022-11-15T01:31:09;6.30;99.90
33837;DHT22;20140;49.356;8.812;2022-11-15T01:33:36;6.60;99.90
33837;DHT22;20140;49.356;8.812;2022-11-15T01:36:14;6.70;99.90
33837;DHT22;20140;49.356;8.812;2022-11-15T01:38:40;6.70;99.90
33837;DHT22;20140;49.356;8.812;2022-11-15T01:41:05;6.60;99.90
33837;DHT22;20140;49.356;8.812;2022-11-15T01:43:36;6.50;99.90
33837;DHT22;20140;49.356;8.812;2022-11-15T01:46:09;6.40;99.90
33837;DHT22;20140;49.356;8.812;2022-11-15T01:48:40;6.40;99.90
33837;DHT22;20140;49.356;8.812;2022-11-15T01:51:11;6.50;99.90
33837;DHT22;20140;49.356;8.812;2022-11-15T01:53:40;6.40;99.90
33837;DHT22;20140;49.356;8.812;2022-11-15T01:56:16;6.40;99.90
33837;DHT22;20140;49.356;8.812;2022-11-15T01:58:44;6.40;99.90
33837;DHT22;20140;49.356;8.812;2022-11-15T02:01:11;6.30;99.90
33837;DHT22;20140;49.356;8.812;2022-11-15T02:03:58;6.30;99.90
33837;DHT22;20140;49.356;8.812;2022-11-15T02:06:24;6.40;99.90
33837;DHT22;20140;49.356;8.812;2022-11-15T02:08:50;6.30;99.90
33837;DHT22;20140;49.356;8.812;2022-11-15T02:11:16;6.40;99.90
33837;DHT22;20140;49.356;8.812;2022-11-15T02:13:42;6.40;99.90
33837;DHT22;20140;49.356;8.812;2022-11-15T02:16:22;6.50;99.90
33837;DHT22;20140;49.356;8.812;2022-11-15T02:19:02;6.50;99.90
33837;DHT22;20140;49.356;8.812;2022-11-15T02:21:39;6.60;99.90
33837;DHT22;20140;49.356;8.812;2022-11-15T02:24:48;6.40;99.90
33837;DHT22;20140;49.356;8.812;2022-11-15T02:27:38;6.30;99.90
33837;DHT22;20140;49.356;8.812;2022-11-15T02:30:41;6.20;99.90
33837;DHT22;20140;49.356;8.812;2022-11-15T02:33:21;6.20;99.90
33837;DHT22;20140;49.356;8.812;2022-11-15T02:36:00;6.30;99.90
33837;DHT22;20140;49.356;8.812;2022-11-15T02:38:47;6.10;99.90
33837;DHT22;20140;49.356;8.812;2022-11-15T02:41:25;6.10;99.90
33837;DHT22;20140;49.356;8.812;2022-11-15T02:44:02;6.10;99.90
33837;DHT22;20140;49.356;8.812;2022-11-15T02:46:50;6.20;99.90
33837;DHT22;20140;49.356;8.812;2022-11-15T02:49:37;6.30;99.90
33837;DHT22;20140;49.356;8.812;2022-11-15T02:52:03;6.40;99.90
33837;DHT22;20140;49.356;8.812;2022-11-15T02:54:33;6.30;99.90
33837;DHT22;20140;49.356;8.812;2022-11-15T02:57:05;6.20;99.90
33837;DHT22;20140;49.356;8.812;2022-11-15T03:02:43;6.10;99.90
33837;DHT22;20140;49.356;8.812;2022-11-15T03:05:17;6.20;99.90
33837;DHT22;20140;49.356;8.812;2022-11-15T03:13:26;6.20;99.90
33837;DHT22;20140;49.356;8.812;2022-11-15T03:16:34;6.30;99.90
33837;DHT22;20140;49.356;8.812;2022-11-15T03:19:08;6.20;99.90
33837;DHT22;20140;49.356;8.812;2022-11-15T03:21:38;6.10;99.90
33837;DHT22;20140;49.356;8.812;2022-11-15T03:24:06;6.10;99.90
33837;DHT22;20140;49.356;8.812;2022-11-15T03:26:34;6.20;99.90
33837;DHT22;20140;49.356;8.812;2022-11-15T03:29:06;6.00;99.90
33837;DHT22;20140;49.356;8.812;2022-11-15T03:31:35;6.00;99.90
33837;DHT22;20140;49.356;8.812;2022-11-15T03:34:47;5.80;99.90
33837;DHT22;20140;49.356;8.812;2022-11-15T03:37:16;5.80;99.90
33837;DHT22;20140;49.356;8.812;2022-11-15T03:39:42;5.80;99.90
33837;DHT22;20140;49.356;8.812;2022-11-15T03:44:51;5.80;99.90
33837;DHT22;20140;49.356;8.812;2022-11-15T03:47:30;5.80;99.90
33837;DHT22;20140;49.356;8.812;2022-11-15T03:50:04;5.80;99.90
33837;DHT22;20140;49.356;8.812;2022-11-15T03:52:33;5.80;99.90
33837;DHT22;20140;49.356;8.812;2022-11-15T03:55:00;6.00;99.90
33837;DHT22;20140;49.356;8.812;2022-11-15T03:57:26;6.00;99.90
33837;DHT22;20140;49.356;8.812;2022-11-15T03:59:52;6.00;99.90
33837;DHT22;20140;49.356;8.812;2022-11-15T04:02:17;6.00;99.90
33837;DHT22;20140;49.356;8.812;2022-11-15T04:04:43;6.00;99.90
33837;DHT22;20140;49.356;8.812;2022-11-15T04:07:08;6.00;99.90
33837;DHT22;20140;49.356;8.812;2022-11-15T04:09:34;6.00;99.90
33837;DHT22;20140;49.356;8.812;2022-11-15T04:12:19;6.00;99.90
33837;DHT22;20140;49.356;8.812;2022-11-15T04:17:49;6.40;99.90
33837;DHT22;20140;49.356;8.812;2022-11-15T04:20:26;6.30;99.90
33837;DHT22;20140;49.356;8.812;2022-11-15T04:23:16;6.30;99.90
33837;DHT22;20140;49.356;8.812;2022-11-15T04:26:03;6.20;99.90
33837;DHT22;20140;49.356;8.812;2022-11-15T04:28:30;6.40;99.90
33837;DHT22;20140;49.356;8.812;2022-11-15T04:30:56;6.30;99.90
33837;DHT22;20140;49.356;8.812;2022-11-15T04:33:22;6.20;99.90
33837;DHT22;20140;49.356;8.812;2022-11-15T04:35:48;6.30;99.90
33837;DHT22;20140;49.356;8.812;2022-11-15T04:38:34;6.40;99.90
33837;DHT22;20140;49.356;8.812;2022-11-15T04:41:00;6.30;99.90
33837;DHT22;20140;49.356;8.812;2022-11-15T04:43:25;6.40;99.90
33837;DHT22;20140;49.356;8.812;2022-11-15T04:45:51;6.50;99.90
33837;DHT22;20140;49.356;8.812;2022-11-15T04:48:16;6.50;99.90
33837;DHT22;20140;49.356;8.812;2022-11-15T04:50:42;6.50;99.90
33837;DHT22;20140;49.356;8.812;2022-11-15T04:53:07;6.40;99.90
33837;DHT22;20140;49.356;8.812;2022-11-15T04:55:33;6.50;99.90
33837;DHT22;20140;49.356;8.812;2022-11-15T04:58:02;6.60;99.90
33837;DHT22;20140;49.356;8.812;2022-11-15T05:00:29;6.50;99.90
33837;DHT22;20140;49.356;8.812;2022-11-15T05:02:56;6.60;99.90
33837;DHT22;20140;49.356;8.812;2022-11-15T05:05:40;6.60;99.90
33837;DHT22;20140;49.356;8.812;2022-11-15T05:08:06;6.60;99.90
33837;DHT22;20140;49.356;8.812;2022-11-15T05:10:31;6.70;99.90
33837;DHT22;20140;49.356;8.812;2022-11-15T05:12:57;6.70;99.90
33837;DHT22;20140;49.356;8.812;2022-11-15T05:15:23;6.60;99.90
33837;DHT22;20140;49.356;8.812;2022-11-15T05:17:48;6.70;99.90
33837;DHT22;20140;49.356;8.812;2022-11-15T05:20:14;6.70;99.90
33837;DHT22;20140;49.356;8.812;2022-11-15T05:22:39;6.70;99.90
33837;DHT22;20140;49.356;8.812;2022-11-15T05:25:06;6.80;99.90
33837;DHT22;20140;49.356;8.812;2022-11-15T05:27:33;6.80;99.90
33837;DHT22;20140;49.356;8.812;2022-11-15T05:29:59;6.80;99.90
33837;DHT22;20140;49.356;8.812;2022-11-15T05:32:24;6.70;99.90
33837;DHT22;20140;49.356;8.812;2022-11-15T05:34:50;6.70;99.90
33837;DHT22;20140;49.356;8.812;2022-11-15T05:37:16;6.80;99.90
33837;DHT22;20140;49.356;8.812;2022-11-15T05:39:42;6.80;99.90
33837;DHT22;20140;49.356;8.812;2022-11-15T05:42:10;6.90;99.90
33837;DHT22;20140;49.356;8.812;2022-11-15T05:44:38;7.00;99.90
33837;DHT22;20140;49.356;8.812;2022-11-15T05:47:08;7.00;99.90
33837;DHT22;20140;49.356;8.812;2022-11-15T05:49:36;6.90;99.90
33837;DHT22;20140;49.356;8.812;2022-11-15T05:52:05;6.90;99.90
33837;DHT22;20140;49.356;8.812;2022-11-15T05:54:32;7.00;99.90
33837;DHT22;20140;49.356;8.812;2022-11-15T05:56:58;6.90;99.90
33837;DHT22;20140;49.356;8.812;2022-11-15T05:59:25;6.90;99.90
33837;DHT22;20140;49.356;8.812;2022-11-15T06:01:51;7.10;99.90
33837;DHT22;20140;49.356;8.812;2022-11-15T06:04:16;7.10;99.90
33837;DHT22;20140;49.356;8.812;2022-11-15T06:06:42;7.20;99.90
33837;DHT22;20140;49.356;8.812;2022-11-15T06:09:08;7.40;99.90
33837;DHT22;20140;49.356;8.812;2022-11-15T06:11:33;7.40;99.90
33837;DHT22;20140;49.356;8.812;2022-11-15T06:13:59;7.30;99.90
33837;DHT22;20140;49.356;8.812;2022-11-15T06:16:24;7.30;99.90
33837;DHT22;20140;49.356;8.812;2022-11-15T06:18:50;7.20;99.90
33837;DHT22;20140;49.356;8.812;2022-11-15T06:21:15;7.10;99.90
33837;DHT22;20140;49.356;8.812;2022-11-15T06:23:41;7.10;99.90
33837;DHT22;20140;49.356;8.812;2022-11-15T06:26:06;7.10;99.90
33837;DHT22;20140;49.356;8.812;2022-11-15T06:28:32;7.20;99.90
33837;DHT22;20140;49.356;8.812;2022-11-15T06:31:06;7.20;99.90
33837;DHT22;20140;49.356;8.812;2022-11-15T06:33:32;7.20;99.90
33837;DHT22;20140;49.356;8.812;2022-11-15T06:36:02;7.10;99.90
33837;DHT22;20140;49.356;8.812;2022-11-15T06:38:28;7.10;99.90
33837;DHT22;20140;49.356;8.812;2022-11-15T06:40:54;7.10;99.90
33837;DHT22;20140;49.356;8.812;2022-11-15T06:43:20;7.10;99.90
33837;DHT22;20140;49.356;8.812;2022-11-15T06:45:45;7.10;99.90
33837;DHT22;20140;49.356;8.812;2022-11-15T06:48:11;7.10;99.90
33837;DHT22;20140;49.356;8.812;2022-11-15T06:50:36;7.20;99.90
33837;DHT22;20140;49.356;8.812;2022-11-15T06:53:03;7.10;99.90
33837;DHT22;20140;49.356;8.812;2022-11-15T06:55:29;7.10;99.90
33837;DHT22;20140;49.356;8.812;2022-11-15T06:57:54;7.10;99.90
33837;DHT22;20140;49.356;8.812;2022-11-15T07:00:21;7.10;99.90
33837;DHT22;20140;49.356;8.812;2022-11-15T07:02:47;7.20;99.90
33837;DHT22;20140;49.356;8.812;2022-11-15T07:05:14;7.20;99.90
33837;DHT22;20140;49.356;8.812;2022-11-15T07:07:39;7.20;99.90
33837;DHT22;20140;49.356;8.812;2022-11-15T07:10:06;7.20;99.90
33837;DHT22;20140;49.356;8.812;2022-11-15T07:12:32;7.20;99.90
33837;DHT22;20140;49.356;8.812;2022-11-15T07:14:57;7.20;99.90
33837;DHT22;20140;49.356;8.812;2022-11-15T07:17:23;7.30;99.90
33837;DHT22;20140;49.356;8.812;2022-11-15T07:19:48;7.30;99.90
33837;DHT22;20140;49.356;8.812;2022-11-15T07:22:14;7.30;99.90
33837;DHT22;20140;49.356;8.812;2022-11-15T07:24:39;7.30;99.90
33837;DHT22;20140;49.356;8.812;2022-11-15T07:27:05;7.40;99.90
33837;DHT22;20140;49.356;8.812;2022-11-15T07:29:30;7.40;99.90
33837;DHT22;20140;49.356;8.812;2022-11-15T07:31:56;7.50;99.90
33837;DHT22;20140;49.356;8.812;2022-11-15T07:34:21;7.60;99.90
33837;DHT22;20140;49.356;8.812;2022-11-15T07:36:47;7.50;99.90
33837;DHT22;20140;49.356;8.812;2022-11-15T07:39:13;7.60;99.90
33837;DHT22;20140;49.356;8.812;2022-11-15T07:41:39;7.60;99.90
33837;DHT22;20140;49.356;8.812;2022-11-15T07:44:05;7.70;99.90
33837;DHT22;20140;49.356;8.812;2022-11-15T07:46:31;7.70;99.90
33837;DHT22;20140;49.356;8.812;2022-11-15T07:48:57;7.70;99.90
33837;DHT22;20140;49.356;8.812;2022-11-15T07:51:23;7.60;99.90
33837;DHT22;20140;49.356;8.812;2022-11-15T07:53:48;7.60;99.90
33837;DHT22;20140;49.356;8.812;2022-11-15T07:56:14;7.70;99.90
33837;DHT22;20140;49.356;8.812;2022-11-15T07:58:40;8.00;99.90
33837;DHT22;20140;49.356;8.812;2022-11-15T08:01:07;8.10;99.90
33837;DHT22;20140;49.356;8.812;2022-11-15T08:03:33;8.30;99.90
33837;DHT22;20140;49.356;8.812;2022-11-15T08:05:59;8.30;99.90
33837;DHT22;20140;49.356;8.812;2022-11-15T08:08:24;8.30;99.90
33837;DHT22;20140;49.356;8.812;2022-11-15T08:10:50;8.20;99.90
33837;DHT22;20140;49.356;8.812;2022-11-15T08:13:16;8.30;99.90
33837;DHT22;20140;49.356;8.812;2022-11-15T08:15:42;8.40;99.90
33837;DHT22;20140;49.356;8.812;2022-11-15T08:18:12;8.40;99.90
33837;DHT22;20140;49.356;8.812;2022-11-15T08:20:38;8.40;99.90
33837;DHT22;20140;49.356;8.812;2022-11-15T08:23:04;8.50;99.90
33837;DHT22;20140;49.356;8.812;2022-11-15T08:25:31;8.50;99.90
33837;DHT22;20140;49.356;8.812;2022-11-15T08:27:59;8.50;99.90
33837;DHT22;20140;49.356;8.812;2022-11-15T08:30:26;8.50;99.90
33837;DHT22;20140;49.356;8.812;2022-11-15T08:32:53;8.50;99.90
33837;DHT22;20140;49.356;8.812;2022-11-15T08:35:20;8.60;99.90
33837;DHT22;20140;49.356;8.812;2022-11-15T08:37:46;8.60;99.90
33837;DHT22;20140;49.356;8.812;2022-11-15T08:40:11;8.70;99.90
33837;DHT22;20140;49.356;8.812;2022-11-15T08:42:37;8.80;99.90
33837;DHT22;20140;49.356;8.812;2022-11-15T08:45:04;8.80;99.90
33837;DHT22;20140;49.356;8.812;2022-11-15T08:47:29;8.90;99.90
33837;DHT22;20140;49.356;8.812;2022-11-15T08:49:55;8.90;99.90
33837;DHT22;20140;49.356;8.812;2022-11-15T08:52:21;9.00;99.90
33837;DHT22;20140;49.356;8.812;2022-11-15T08:54:46;9.00;99.90
33837;DHT22;20140;49.356;8.812;2022-11-15T08:57:12;9.10;99.90
33837;DHT22;20140;49.356;8.812;2022-11-15T08:59:38;9.20;99.90
33837;DHT22;20140;49.356;8.812;2022-11-15T09:02:03;9.10;99.90
33837;DHT22;20140;49.356;8.812;2022-11-15T09:04:29;9.10;99.90
33837;DHT22;20140;49.356;8.812;2022-11-15T09:06:55;9.10;99.90
33837;DHT22;20140;49.356;8.812;2022-11-15T09:09:21;9.20;99.90
33837;DHT22;20140;49.356;8.812;2022-11-15T09:11:46;9.20;99.90
33837;DHT22;20140;49.356;8.812;2022-11-15T09:14:13;9.20;99.90
33837;DHT22;20140;49.356;8.812;2022-11-15T09:16:39;9.30;99.90
33837;DHT22;20140;49.356;8.812;2022-11-15T09:19:05;9.30;99.90
33837;DHT22;20140;49.356;8.812;2022-11-15T09:21:31;9.30;99.90
33837;DHT22;20140;49.356;8.812;2022-11-15T09:23:56;9.40;99.90
33837;DHT22;20140;49.356;8.812;2022-11-15T09:26:22;9.50;99.90
33837;DHT22;20140;49.356;8.812;2022-11-15T09:28:48;9.60;99.90
33837;DHT22;20140;49.356;8.812;2022-11-15T09:31:13;9.60;99.90
33837;DHT22;20140;49.356;8.812;2022-11-15T09:33:39;9.90;99.90
33837;DHT22;20140;49.356;8.812;2022-11-15T09:36:07;10.10;99.90
33837;DHT22;20140;49.356;8.812;2022-11-15T09:38:33;10.20;99.90
33837;DHT22;20140;49.356;8.812;2022-11-15T09:41:13;10.20;99.90
33837;DHT22;20140;49.356;8.812;2022-11-15T09:46:58;10.10;99.90
33837;DHT22;20140;49.356;8.812;2022-11-15T09:49:26;10.20;99.90
33837;DHT22;20140;49.356;8.812;2022-11-15T09:51:54;10.20;99.90
33837;DHT22;20140;49.356;8.812;2022-11-15T09:54:38;10.20;99.90
33837;DHT22;20140;49.356;8.812;2022-11-15T10:00:00;10.30;99.90
33837;DHT22;20140;49.356;8.812;2022-11-15T10:05:19;10.50;99.90
33837;DHT22;20140;49.356;8.812;2022-11-15T10:11:01;10.80;99.90
33837;DHT22;20140;49.356;8.812;2022-11-15T10:13:36;10.80;99.90
33837;DHT22;20140;49.356;8.812;2022-11-15T10:18:35;10.90;99.90
33837;DHT22;20140;49.356;8.812;2022-11-15T10:21:19;10.90;99.90
33837;DHT22;20140;49.356;8.812;2022-11-15T10:23:45;11.00;99.90
33837;DHT22;20140;49.356;8.812;2022-11-15T10:26:15;11.00;99.90
33837;DHT22;20140;49.356;8.812;2022-11-15T10:28:41;11.10;99.90
33837;DHT22;20140;49.356;8.812;2022-11-15T10:31:24;11.10;99.90
33837;DHT22;20140;49.356;8.812;2022-11-15T10:33:51;11.20;99.90
33837;DHT22;20140;49.356;8.812;2022-11-15T10:36:23;11.30;99.90
33837;DHT22;20140;49.356;8.812;2022-11-15T10:41:29;11.30;99.90
33837;DHT22;20140;49.356;8.812;2022-11-15T10:46:40;11.90;99.90
33837;DHT22;20140;49.356;8.812;2022-11-15T10:49:18;11.90;99.90
33837;DHT22;20140;49.356;8.812;2022-11-15T10:51:55;11.80;99.90
33837;DHT22;20140;49.356;8.812;2022-11-15T10:54:42;11.80;99.90
33837;DHT22;20140;49.356;8.812;2022-11-15T10:57:13;11.80;99.90
33837;DHT22;20140;49.356;8.812;2022-11-15T10:59:53;12.20;99.90
33837;DHT22;20140;49.356;8.812;2022-11-15T11:08:31;12.20;99.90
33837;DHT22;20140;49.356;8.812;2022-11-15T11:10:54;12.20;99.90
33837;DHT22;20140;49.356;8.812;2022-11-15T11:13:32;12.30;99.90
33837;DHT22;20140;49.356;8.812;2022-11-15T11:16:16;12.30;99.90
33837;DHT22;20140;49.356;8.812;2022-11-15T11:19:04;12.60;99.90
33837;DHT22;20140;49.356;8.812;2022-11-15T11:24:47;13.00;99.90
33837;DHT22;20140;49.356;8.812;2022-11-15T11:38:51;13.20;99.90
33837;DHT22;20140;49.356;8.812;2022-11-15T11:47:03;13.60;99.90
33837;DHT22;20140;49.356;8.812;2022-11-15T11:52:17;13.30;99.90
33837;DHT22;20140;49.356;8.812;2022-11-15T11:55:04;13.20;99.90
33837;DHT22;20140;49.356;8.812;2022-11-15T11:57:39;13.30;99.90
33837;DHT22;20140;49.356;8.812;2022-11-15T12:00:18;13.30;99.90
33837;DHT22;20140;49.356;8.812;2022-11-15T12:05:27;12.90;99.90
33837;DHT22;20140;49.356;8.812;2022-11-15T12:08:03;13.00;99.90
33837;DHT22;20140;49.356;8.812;2022-11-15T12:10:32;13.10;99.90
33837;DHT22;20140;49.356;8.812;2022-11-15T12:13:18;13.20;99.90
33837;DHT22;20140;49.356;8.812;2022-11-15T12:15:57;13.10;99.90
33837;DHT22;20140;49.356;8.812;2022-11-15T12:18:26;13.30;99.90
33837;DHT22;20140;49.356;8.812;2022-11-15T12:20:56;13.40;99.90
33837;DHT22;20140;49.356;8.812;2022-11-15T12:23:29;13.30;99.90
33837;DHT22;20140;49.356;8.812;2022-11-15T12:26:08;13.20;99.90
33837;DHT22;20140;49.356;8.812;2022-11-15T12:28:53;13.10;99.90
33837;DHT22;20140;49.356;8.812;2022-11-15T12:31:39;13.00;99.90
33837;DHT22;20140;49.356;8.812;2022-11-15T12:34:45;13.00;99.90
33837;DHT22;20140;49.356;8.812;2022-11-15T12:37:46;13.10;99.90
33837;DHT22;20140;49.356;8.812;2022-11-15T12:43:04;13.20;99.90
33837;DHT22;20140;49.356;8.812;2022-11-15T12:45:33;13.30;99.90
33837;DHT22;20140;49.356;8.812;2022-11-15T12:56:09;13.40;99.90
33837;DHT22;20140;49.356;8.812;2022-11-15T13:07:02;13.40;99.90
33837;DHT22;20140;49.356;8.812;2022-11-15T13:14:52;13.50;99.90
33837;DHT22;20140;49.356;8.812;2022-11-15T13:28:03;13.50;99.90
33837;DHT22;20140;49.356;8.812;2022-11-15T13:30:35;13.50;99.90
33837;DHT22;20140;49.356;8.812;2022-11-15T13:33:09;13.50;99.90
33837;DHT22;20140;49.356;8.812;2022-11-15T13:35:39;13.50;99.90
33837;DHT22;20140;49.356;8.812;2022-11-15T13:38:05;13.50;99.90
33837;DHT22;20140;49.356;8.812;2022-11-15T13:40:36;13.50;99.90
33837;DHT22;20140;49.356;8.812;2022-11-15T13:43:31;13.50;99.90
33837;DHT22;20140;49.356;8.812;2022-11-15T13:46:09;13.40;99.90
33837;DHT22;20140;49.356;8.812;2022-11-15T13:48:36;13.50;99.90
33837;DHT22;20140;49.356;8.812;2022-11-15T13:51:08;13.50;99.90
33837;DHT22;20140;49.356;8.812;2022-11-15T13:53:40;13.70;99.90
33837;DHT22;20140;49.356;8.812;2022-11-15T13:56:09;13.90;99.90
33837;DHT22;20140;49.356;8.812;2022-11-15T13:58:38;14.00;99.90
33837;DHT22;20140;49.356;8.812;2022-11-15T14:01:05;14.10;99.90
33837;DHT22;20140;49.356;8.812;2022-11-15T14:03:57;14.50;99.90
33837;DHT22;20140;49.356;8.812;2022-11-15T14:06:26;15.00;99.90
33837;DHT22;20140;49.356;8.812;2022-11-15T14:09:39;15.30;99.90
33837;DHT22;20140;49.356;8.812;2022-11-15T14:12:34;15.60;99.90
33837;DHT22;20140;49.356;8.812;2022-11-15T14:15:31;15.50;99.90
33837;DHT22;20140;49.356;8.812;2022-11-15T14:17:57;15.10;99.90
33837;DHT22;20140;49.356;8.812;2022-11-15T14:22:53;14.80;99.90
33837;DHT22;20140;49.356;8.812;2022-11-15T14:25:21;14.70;99.90
33837;DHT22;20140;49.356;8.812;2022-11-15T14:30:44;14.50;99.90
33837;DHT22;20140;49.356;8.812;2022-11-15T14:33:32;14.40;99.90
33837;DHT22;20140;49.356;8.812;2022-11-15T14:36:03;14.40;99.90
33837;DHT22;20140;49.356;8.812;2022-11-15T14:38:29;14.20;99.90
33837;DHT22;20140;49.356;8.812;2022-11-15T14:40:54;14.30;99.90
33837;DHT22;20140;49.356;8.812;2022-11-15T14:43:21;14.30;99.90
33837;DHT22;20140;49.356;8.812;2022-11-15T14:45:46;14.20;99.90
33837;DHT22;20140;49.356;8.812;2022-11-15T14:48:12;14.20;99.90
33837;DHT22;20140;49.356;8.812;2022-11-15T14:50:37;14.20;99.90
33837;DHT22;20140;49.356;8.812;2022-11-15T14:53:04;14.00;99.90
33837;DHT22;20140;49.356;8.812;2022-11-15T14:55:32;13.90;99.90
33837;DHT22;20140;49.356;8.812;2022-11-15T14:58:00;13.80;99.90
33837;DHT22;20140;49.356;8.812;2022-11-15T15:00:31;13.70;99.90
33837;DHT22;20140;49.356;8.812;2022-11-15T15:02:57;13.60;99.90
33837;DHT22;20140;49.356;8.812;2022-11-15T15:05:33;13.70;99.90
33837;DHT22;20140;49.356;8.812;2022-11-15T15:07:59;13.60;99.90
33837;DHT22;20140;49.356;8.812;2022-11-15T15:10:27;13.60;99.90
33837;DHT22;20140;49.356;8.812;2022-11-15T15:12:52;13.60;99.90
33837;DHT22;20140;49.356;8.812;2022-11-15T15:15:24;13.50;99.90
33837;DHT22;20140;49.356;8.812;2022-11-15T15:17:50;13.50;99.90
33837;DHT22;20140;49.356;8.812;2022-11-15T15:20:16;13.50;99.90
33837;DHT22;20140;49.356;8.812;2022-11-15T15:22:41;13.40;99.90
33837;DHT22;20140;49.356;8.812;2022-11-15T15:25:26;13.40;99.90
33837;DHT22;20140;49.356;8.812;2022-11-15T15:27:52;13.40;99.90
33837;DHT22;20140;49.356;8.812;2022-11-15T15:30:18;13.20;99.90
33837;DHT22;20140;49.356;8.812;2022-11-15T15:32:44;13.10;99.90
33837;DHT22;20140;49.356;8.812;2022-11-15T15:35:12;13.10;99.90
33837;DHT22;20140;49.356;8.812;2022-11-15T15:37:38;13.10;99.90
33837;DHT22;20140;49.356;8.812;2022-11-15T15:42:42;13.00;99.90
33837;DHT22;20140;49.356;8.812;2022-11-15T15:45:08;12.90;99.90
33837;DHT22;20140;49.356;8.812;2022-11-15T15:47:34;12.70;99.90
33837;DHT22;20140;49.356;8.812;2022-11-15T15:50:00;12.70;99.90
33837;DHT22;20140;49.356;8.812;2022-11-15T15:52:25;12.80;99.90
33837;DHT22;20140;49.356;8.812;2022-11-15T15:54:51;12.90;99.90
33837;DHT22;20140;49.356;8.812;2022-11-15T15:57:16;12.80;99.90
33837;DHT22;20140;49.356;8.812;2022-11-15T15:59:42;12.80;99.90
33837;DHT22;20140;49.356;8.812;2022-11-15T16:02:12;12.70;99.90
33837;DHT22;20140;49.356;8.812;2022-11-15T16:04:38;12.70;99.90
33837;DHT22;20140;49.356;8.812;2022-11-15T16:07:04;12.50;99.90
33837;DHT22;20140;49.356;8.812;2022-11-15T16:09:29;12.50;99.90
33837;DHT22;20140;49.356;8.812;2022-11-15T16:12:13;12.40;99.90
33837;DHT22;20140;49.356;8.812;2022-11-15T16:14:41;12.30;99.90
33837;DHT22;20140;49.356;8.812;2022-11-15T16:17:15;12.20;99.90
33837;DHT22;20140;49.356;8.812;2022-11-15T16:19:42;12.20;99.90
33837;DHT22;20140;49.356;8.812;2022-11-15T16:22:08;12.00;99.90
33837;DHT22;20140;49.356;8.812;2022-11-15T16:24:33;12.00;99.90
33837;DHT22;20140;49.356;8.812;2022-11-15T16:26:59;12.00;99.90
33837;DHT22;20140;49.356;8.812;2022-11-15T16:29:24;11.90;99.90
33837;DHT22;20140;49.356;8.812;2022-11-15T16:31:50;11.90;99.90
33837;DHT22;20140;49.356;8.812;2022-11-15T16:34:16;11.70;99.90
33837;DHT22;20140;49.356;8.812;2022-11-15T16:36:41;11.80;99.90
33837;DHT22;20140;49.356;8.812;2022-11-15T16:39:12;11.80;99.90
33837;DHT22;20140;49.356;8.812;2022-11-15T16:41:39;11.80;99.90
33837;DHT22;20140;49.356;8.812;2022-11-15T16:44:04;11.80;99.90
33837;DHT22;20140;49.356;8.812;2022-11-15T16:46:30;11.80;99.90
33837;DHT22;20140;49.356;8.812;2022-11-15T16:48:56;11.80;99.90
33837;DHT22;20140;49.356;8.812;2022-11-15T16:51:22;11.80;99.90
33837;DHT22;20140;49.356;8.812;2022-11-15T16:53:48;11.70;99.90
33837;DHT22;20140;49.356;8.812;2022-11-15T16:58:47;11.70;99.90
33837;DHT22;20140;49.356;8.812;2022-11-15T17:01:27;11.70;99.90
33837;DHT22;20140;49.356;8.812;2022-11-15T17:03:53;11.60;99.90
33837;DHT22;20140;49.356;8.812;2022-11-15T17:06:19;11.60;99.90
33837;DHT22;20140;49.356;8.812;2022-11-15T17:08:46;11.50;99.90
33837;DHT22;20140;49.356;8.812;2022-11-15T17:11:15;11.50;99.90
33837;DHT22;20140;49.356;8.812;2022-11-15T17:13:41;11.40;99.90
33837;DHT22;20140;49.356;8.812;2022-11-15T17:16:08;11.40;99.90
33837;DHT22;20140;49.356;8.812;2022-11-15T17:18:35;11.40;99.90
33837;DHT22;20140;49.356;8.812;2022-11-15T17:21:05;11.40;99.90
33837;DHT22;20140;49.356;8.812;2022-11-15T17:23:32;11.50;99.90
33837;DHT22;20140;49.356;8.812;2022-11-15T17:26:01;11.50;99.90
33837;DHT22;20140;49.356;8.812;2022-11-15T17:28:32;11.40;99.90
33837;DHT22;20140;49.356;8.812;2022-11-15T17:30:58;11.40;99.90
33837;DHT22;20140;49.356;8.812;2022-11-15T17:33:24;11.30;99.90
33837;DHT22;20140;49.356;8.812;2022-11-15T17:35:57;11.30;99.90
33837;DHT22;20140;49.356;8.812;2022-11-15T17:38:23;11.30;99.90
33837;DHT22;20140;49.356;8.812;2022-11-15T17:41:11;11.30;99.90
33837;DHT22;20140;49.356;8.812;2022-11-15T17:43:37;11.40;99.90
33837;DHT22;20140;49.356;8.812;2022-11-15T17:46:05;11.40;99.90
33837;DHT22;20140;49.356;8.812;2022-11-15T17:48:31;11.40;99.90